Map

Track Data

SID SEASON NUMBER BASIN SUBBASIN NAME ISO_TIME NATURE LAT LON WMO_WIND WMO_PRES WMO_AGENCY TRACK_TYPE DIST2LAND LANDFALL IFLAG USA_AGENCY USA_ATCF_ID USA_LAT USA_LON USA_RECORD USA_STATUS USA_WIND USA_PRES USA_SSHS USA_R34_NE USA_R34_SE USA_R34_SW USA_R34_NW USA_R50_NE USA_R50_SE USA_R50_SW USA_R50_NW USA_R64_NE USA_R64_SE USA_R64_SW USA_R64_NW USA_POCI USA_ROCI USA_RMW USA_EYE TOKYO_LAT TOKYO_LON TOKYO_GRADE TOKYO_WIND TOKYO_PRES TOKYO_R50_DIR TOKYO_R50_LONG TOKYO_R50_SHORT TOKYO_R30_DIR TOKYO_R30_LONG TOKYO_R30_SHORT TOKYO_LAND CMA_LAT CMA_LON CMA_CAT CMA_WIND CMA_PRES HKO_LAT HKO_LON HKO_CAT HKO_WIND HKO_PRES NEWDELHI_LAT NEWDELHI_LON NEWDELHI_GRADE NEWDELHI_WIND NEWDELHI_PRES NEWDELHI_CI NEWDELHI_DP NEWDELHI_POCI REUNION_LAT REUNION_LON REUNION_TYPE REUNION_WIND REUNION_PRES REUNION_TNUM REUNION_CI REUNION_RMW REUNION_R34_NE REUNION_R34_SE REUNION_R34_SW REUNION_R34_NW REUNION_R50_NE REUNION_R50_SE REUNION_R50_SW REUNION_R50_NW REUNION_R64_NE REUNION_R64_SE REUNION_R64_SW REUNION_R64_NW BOM_LAT BOM_LON BOM_TYPE BOM_WIND BOM_PRES BOM_TNUM BOM_CI BOM_RMW BOM_R34_NE BOM_R34_SE BOM_R34_SW BOM_R34_NW BOM_R50_NE BOM_R50_SE BOM_R50_SW BOM_R50_NW BOM_R64_NE BOM_R64_SE BOM_R64_SW BOM_R64_NW BOM_ROCI BOM_POCI BOM_EYE BOM_POS_METHOD BOM_PRES_METHOD NADI_LAT NADI_LON NADI_CAT NADI_WIND NADI_PRES WELLINGTON_LAT WELLINGTON_LON WELLINGTON_WIND WELLINGTON_PRES DS824_LAT DS824_LON DS824_STAGE DS824_WIND DS824_PRES TD9636_LAT TD9636_LON TD9636_STAGE TD9636_WIND TD9636_PRES TD9635_LAT TD9635_LON TD9635_WIND TD9635_PRES TD9635_ROCI NEUMANN_LAT NEUMANN_LON NEUMANN_CLASS NEUMANN_WIND NEUMANN_PRES MLC_LAT MLC_LON MLC_CLASS MLC_WIND MLC_PRES USA_GUST BOM_GUST BOM_GUST_PER REUNION_GUST REUNION_GUST_PER USA_SEAHGT USA_SEARAD_NE USA_SEARAD_SE USA_SEARAD_SW USA_SEARAD_NW STORM_SPEED STORM_DIR
1953013S15140 1953 3 SP EA NOT_NAMED 1953-01-12 23:00:00 NR -15.3500 139.650 998 bom main 194 183 ______O___O___ -1 -15.4000 139.600 998 -15.3000 139.700 7 4 0
1953013S15140 1953 3 SP EA NOT_NAMED 1953-01-13 00:00:00 TS -15.4207 139.667 main 183 153 O_____P__OP___ jtwc_sh SH061953 -15.4000 139.700 -1 -15.3940 139.654 -15.4000 139.700 TC -15.4283 139.679 7 5 174
1953013S15140 1953 3 SP EA NOT_NAMED 1953-01-13 03:00:00 TS -15.6839 139.689 main 153 123 P_____P__PP___ SH061953 -15.8100 139.658 -1 -15.3878 139.808 -15.8100 139.658 TC -15.8119 139.614 7 6 178
1953013S15140 1953 3 SP EA NOT_NAMED 1953-01-13 06:00:00 TS -15.9756 139.677 main 123 89 O_____P__OP___ jtwc_sh SH061953 -16.2000 139.600 -1 -15.4242 139.928 -16.2000 139.600 TC -16.1904 139.543 7 6 187
1953013S15140 1953 3 SP EA NOT_NAMED 1953-01-13 09:00:00 TS -16.3026 139.620 main 89 70 P_____P__PP___ SH061953 -16.5575 139.515 -1 -15.5353 139.989 -16.5575 139.515 TC -16.5602 139.462 7 7 191
1953013S15140 1953 3 SP EA NOT_NAMED 1953-01-13 11:00:00 TS -16.5097 139.567 main 70 54 P_____P__PO___ SH061953 -16.7859 139.442 -1 -15.6667 139.985 -16.7859 139.442 TC -16.8000 139.400 7 7 193
1953013S15140 1953 3 SP EA NOT_NAMED 1953-01-13 12:00:00 TS -16.6177 139.533 main 54 21 O_____P__OP___ jtwc_sh SH061953 -16.9000 139.400 -1 -15.7532 139.966 -16.9000 139.400 TC -16.9174 139.366 7 7 199
1953013S15140 1953 3 SP EA NOT_NAMED 1953-01-13 15:00:00 TS -16.9741 139.397 main 21 0 P_____P__PP___ SH061953 -17.2650 139.250 -1 -16.1100 139.835 -17.2650 139.250 TC -17.2563 139.255 7 8 202
1953013S15140 1953 3 SP EA NOT_NAMED 1953-01-13 18:00:00 TS -17.3513 139.224 main 0 0 O_____P__OP___ jtwc_sh SH061953 -17.6000 139.100 -1 -16.6377 139.567 -17.6000 139.100 TC -17.5676 139.130 7 8 204
1953013S15140 1953 3 SP EA NOT_NAMED 1953-01-13 20:00:00 TS -17.6105 139.100 995 bom main 0 0 P_____O__PP___ SH061953 -17.7933 139.031 -1 -17.1000 139.300 995 -17.7933 139.031 TC -17.7553 139.040 7 9 205
1953013S15140 1953 3 SP EA NOT_NAMED 1953-01-13 21:00:00 TS -17.7417 139.033 main 0 0 P_____P__PP___ SH061953 -17.8800 139.000 -1 -17.3647 139.139 995 -17.8800 139.000 TC -17.8421 138.994 7 9 208
1953013S15140 1953 3 SP EA NOT_NAMED 1953-01-13 23:00:00 TS -17.9917 138.893 995 bom main 0 0 P_____O__PO___ SH061953 -18.0333 138.936 -1 -17.9000 138.800 995 4 -18.0333 138.936 TC -18.0000 138.900 7 8 209
1953013S15140 1953 3 SP EA NOT_NAMED 1953-01-14 00:00:00 TS -18.1036 138.825 main 0 0 O_____P__OP___ jtwc_sh SH061953 -18.1000 138.900 -1 -18.1394 138.643 -18.1000 138.900 TC -18.0750 138.856 7 7 213
1953013S15140 1953 3 SP EA NOT_NAMED 1953-01-14 03:00:00 TS -18.3808 138.625 main 0 0 P_____P__PP___ SH061953 -18.2725 138.765 -1 -18.7092 138.250 -18.2725 138.765 TC -18.2690 138.719 7 6 218
1953013S15140 1953 3 SP EA NOT_NAMED 1953-01-14 06:00:00 TS -18.5753 138.434 main 0 0 O_____P__OP___ jtwc_sh SH061953 -18.4000 138.600 -1 -19.0798 137.962 -18.4000 138.600 TC -18.4215 138.572 7 5 227
1953013S15140 1953 3 SP EA NOT_NAMED 1953-01-14 09:00:00 TS -18.7124 138.249 main 0 0 P_____P__PP___ SH061953 -18.5150 138.408 -1 -19.2809 137.765 -18.5150 138.408 TC -18.5385 138.414 7 4 236
1953013S15140 1953 3 SP EA NOT_NAMED 1953-01-14 11:00:00 TS -18.7713 138.129 main 0 0 P_____P__PO___ SH061953 -18.5750 138.269 -1 -19.3353 137.677 -18.5750 138.269 TC -18.6000 138.300 7 4 244
1953013S15140 1953 3 SP EA NOT_NAMED 1953-01-14 12:00:00 TS -18.7933 138.070 main 0 0 O_____P__OP___ jtwc_sh SH061953 -18.6000 138.200 -1 -19.3418 137.644 -18.6000 138.200 TC -18.6313 138.238 7 3 255
1953013S15140 1953 3 SP EA NOT_NAMED 1953-01-14 15:00:00 TS -18.8276 137.905 main 0 0 P_____P__PP___ SH061953 -18.6575 138.000 -1 -19.2917 137.583 -18.6575 138.000 TC -18.7038 138.038 7 3 264
1953013S15140 1953 3 SP EA NOT_NAMED 1953-01-14 18:00:00 TS -18.8277 137.749 main 0 0 O_____P__OP___ jtwc_sh SH061953 -18.7000 137.800 -1 -19.1595 137.566 -18.7000 137.800 TC -18.7512 137.831 7 3 275
1953013S15140 1953 3 SP EA NOT_NAMED 1953-01-14 21:00:00 TS -18.8036 137.595 main 0 0 P_____P__PP___ SH061953 -18.7500 137.585 -1 -18.9742 137.579 -18.7500 137.585 TC -18.7829 137.627 7 3 277
1953013S15140 1953 3 SP EA NOT_NAMED 1953-01-14 23:00:00 TS -18.7955 137.488 main 0 0 P_____P__PO___ SH061953 -18.7833 137.455 -1 -18.8354 137.595 -18.7833 137.455 TC -18.8000 137.500 7 3 273
1953013S15140 1953 3 SP EA NOT_NAMED 1953-01-14 23:30:00 TS -18.7967 137.454 1000 bom main 0 0 P_____O__PP___ SH061953 -18.7917 137.427 -1 -18.8000 137.600 1000 -18.7917 137.427 TC -18.8060 137.472 7 3 262
1953013S15140 1953 3 SP EA NOT_NAMED 1953-01-15 00:00:00 TS -18.8036 137.429 main 0 0 O________OP___ jtwc_sh SH061953 -18.8000 137.400 -1 -18.8000 137.400 TC -18.8116 137.445 7 3 250
1953013S15140 1953 3 SP EA NOT_NAMED 1953-01-15 03:00:00 TS -18.8520 137.297 main 0 0 P________PP___ SH061953 -18.8574 137.300 -1 -18.8574 137.300 TC -18.8411 137.290 7 2 250
1953013S15140 1953 3 SP EA NOT_NAMED 1953-01-15 06:00:00 TS -18.8883 137.182 main 0 0 O________OP___ jtwc_sh SH061953 -18.9000 137.200 -1 -18.9000 137.200 TC -18.8648 137.145 7 3 261
1953013S15140 1953 3 SP EA NOT_NAMED 1953-01-15 09:00:00 TS -18.8953 137.005 main 0 0 P________PP___ SH061953 -18.9000 137.007 -1 -18.9000 137.007 TC -18.8859 137.000 7 3 268
1953013S15140 1953 3 SP EA NOT_NAMED 1953-01-15 11:00:00 TS -18.8980 136.877 main 0 0 P________PO___ SH061953 -18.8969 136.866 -1 -18.8969 136.866 TC -18.9000 136.900 7 4 268
1953013S15140 1953 3 SP EA NOT_NAMED 1953-01-15 12:00:00 TS -18.9030 136.819 main 0 0 O________OP___ jtwc_sh SH061953 -18.9000 136.800 -1 -18.9000 136.800 TC -18.9074 136.848 7 3 260
1953013S15140 1953 3 SP EA NOT_NAMED 1953-01-15 15:00:00 TS -18.9343 136.658 main 0 0 P________PP___ SH061953 -18.9375 136.635 -1 -18.9375 136.635 TC -18.9310 136.682 7 3 257
1953013S15140 1953 3 SP EA NOT_NAMED 1953-01-15 18:00:00 TS -18.9738 136.503 main 0 0 O________OP___ jtwc_sh SH061953 -19.0000 136.500 -1 -19.0000 136.500 TC -18.9563 136.506 7 3 261
1953013S15140 1953 3 SP EA NOT_NAMED 1953-01-15 21:00:00 NR -18.9824 136.323 main 0 0 __________P___ SH061953 -1 TC -18.9824 136.323 7 3 265
1953013S15140 1953 3 SP EA NOT_NAMED 1953-01-15 23:00:00 NR -19.0000 136.200 main 0 __________O___ SH061953 -1 TC -19.0000 136.200 7 4 261

Digital Typhoon Data and Search

About IBTrACS Database

This database is a web-friendly format of International Best Track Archive for Climate Stewardship (IBTrACS), a global best track data archive curated by NOAA dating back to 1842.

Updated: 2021-12-01